Time;durP1;ratioP1;P1;durP2;ratioP2;P2;SDS_P1;SDS_P2;PMS_P1;PMS_P2;Temp;Humidity;BMP_temperature;BMP_pressure;BME280_temperature;BME280_humidity;BME280_pressure;Samples;Min_cycle;Max_cycle;Signal;HPM_P1;HPM_P2
2021/11/19 00:00:45;;;;;;;2.42;2.00;;;;;;;;;;5018729;28;20121;-61
2021/11/19 00:03:12;;;;;;;3.35;1.80;;;;;;;;;;5014941;28;20029;-61
2021/11/19 00:05:38;;;;;;;2.65;1.80;;;;;;;;;;5015466;28;20543;-61
2021/11/19 00:08:05;;;;;;;3.67;1.70;;;;;;;;;;5015891;28;20670;-61
2021/11/19 00:10:31;;;;;;;2.83;1.77;;;;;;;;;;5021187;28;20121;-62
2021/11/19 00:12:57;;;;;;;5.18;1.92;;;;;;;;;;5021274;28;20034;-61
2021/11/19 00:15:23;;;;;;;2.67;1.80;;;;;;;;;;5019048;28;20076;-61
2021/11/19 00:17:49;;;;;;;3.58;1.42;;;;;;;;;;5017657;28;20025;-61
2021/11/19 00:20:17;;;;;;;4.35;1.58;;;;;;;;;;5019798;28;20032;-60
2021/11/19 00:22:44;;;;;;;3.08;1.60;;;;;;;;;;5020003;28;20029;-61
2021/11/19 00:25:10;;;;;;;1.95;1.40;;;;;;;;;;5018064;28;20029;-61
2021/11/19 00:27:37;;;;;;;4.38;1.42;;;;;;;;;;5018564;28;20033;-61
2021/11/19 00:30:09;;;;;;;7.82;1.58;;;;;;;;;;5019634;28;20535;-62
2021/11/19 00:32:36;;;;;;;2.15;1.40;;;;;;;;;;5021419;28;20572;-62
2021/11/19 00:35:03;;;;;;;5.03;1.73;;;;;;;;;;5016986;28;20030;-62
2021/11/19 00:37:29;;;;;;;4.22;1.50;;;;;;;;;;5017954;28;20053;-62
2021/11/19 00:39:54;;;;;;;2.83;1.30;;;;;;;;;;5014182;28;20083;-62
2021/11/19 00:42:20;;;;;;;5.32;1.13;;;;;;;;;;5020678;28;20034;-62
2021/11/19 00:44:47;;;;;;;1.48;0.88;;;;;;;;;;5017838;28;20054;-62
2021/11/19 00:47:13;;;;;;;4.78;1.05;;;;;;;;;;5017561;28;20044;-62
2021/11/19 00:49:41;;;;;;;2.20;0.90;;;;;;;;;;5020640;28;20017;-62
2021/11/19 00:52:08;;;;;;;1.15;0.70;;;;;;;;;;5018714;28;20079;-62
2021/11/19 00:54:35;;;;;;;3.30;1.00;;;;;;;;;;5016320;28;20539;-62
2021/11/19 00:57:04;;;;;;;4.00;0.90;;;;;;;;;;5019205;28;20029;-60
2021/11/19 00:59:32;;;;;;;1.77;0.80;;;;;;;;;;5014506;28;20147;-61
2021/11/19 01:02:02;;;;;;;6.85;1.45;;;;;;;;;;5017236;28;20486;-60
2021/11/19 01:04:28;;;;;;;4.25;1.00;;;;;;;;;;5015947;28;20026;-61
2021/11/19 01:06:54;;;;;;;6.78;1.35;;;;;;;;;;5019680;28;20068;-61
2021/11/19 01:09:26;;;;;;;3.88;1.08;;;;;;;;;;5019000;28;20065;-61
2021/11/19 01:11:54;;;;;;;5.63;2.03;;;;;;;;;;5017573;28;20030;-61
2021/11/19 01:14:30;;;;;;;5.60;1.45;;;;;;;;;;5015865;28;20034;-61
2021/11/19 01:16:59;;;;;;;6.35;1.40;;;;;;;;;;5016233;28;20419;-61
2021/11/19 01:19:33;;;;;;;2.83;1.00;;;;;;;;;;5024399;28;20032;-60
2021/11/19 01:22:04;;;;;;;5.60;1.10;;;;;;;;;;5014982;28;20526;-60
2021/11/19 01:24:30;;;;;;;1.73;1.02;;;;;;;;;;5013493;28;20029;-61
2021/11/19 01:26:57;;;;;;;10.20;1.30;;;;;;;;;;5012439;28;20030;-60
2021/11/19 01:29:22;;;;;;;3.50;1.13;;;;;;;;;;5017512;28;20034;-60
2021/11/19 01:32:03;;;;;;;0.80;0.80;;;;;;;;;;5016903;28;20032;-60
2021/11/19 01:34:29;;;;;;;2.78;1.30;;;;;;;;;;5018279;28;20030;-60
2021/11/19 01:36:55;;;;;;;5.85;0.77;;;;;;;;;;5017456;28;20107;-61
2021/11/19 01:39:23;;;;;;;2.17;1.00;;;;;;;;;;5016534;28;20026;-61
2021/11/19 01:42:01;;;;;;;4.20;1.02;;;;;;;;;;5015653;28;20025;-61
2021/11/19 01:44:40;;;;;;;1.35;1.13;;;;;;;;;;5014885;28;20513;-62
2021/11/19 01:47:10;;;;;;;1.50;1.05;;;;;;;;;;5018458;28;20180;-61
2021/11/19 01:49:37;;;;;;;2.25;1.02;;;;;;;;;;5021288;28;20044;-61
2021/11/19 01:52:25;;;;;;;8.57;1.38;;;;;;;;;;5016966;28;20036;-60
2021/11/19 01:54:58;;;;;;;4.47;1.38;;;;;;;;;;5021664;28;20404;-61
2021/11/19 01:57:38;;;;;;;4.07;0.90;;;;;;;;;;5019575;28;20036;-61
2021/11/19 02:00:10;;;;;;;1.98;0.93;;;;;;;;;;5019469;28;20113;-61
2021/11/19 02:02:39;;;;;;;6.45;1.73;;;;;;;;;;5019091;28;20026;-62
2021/11/19 02:05:09;;;;;;;1.77;1.20;;;;;;;;;;5022945;28;20033;-62
2021/11/19 02:07:48;;;;;;;2.38;1.17;;;;;;;;;;5021960;28;20030;-61
2021/11/19 02:11:03;;;;;;;3.15;0.90;;;;;;;;;;5038231;28;20037;-61
2021/11/19 02:13:55;;;;;;;2.58;0.80;;;;;;;;;;5017891;28;20030;-61
2021/11/19 02:16:28;;;;;;;1.65;0.80;;;;;;;;;;5008275;28;20381;-61
2021/11/19 02:19:02;;;;;;;3.88;0.90;;;;;;;;;;5020088;28;20536;-61
2021/11/19 02:21:42;;;;;;;1.95;0.90;;;;;;;;;;5020063;28;20038;-61
2021/11/19 02:24:17;;;;;;;2.28;1.10;;;;;;;;;;5021646;28;20037;-61
2021/11/19 02:26:50;;;;;;;1.95;0.70;;;;;;;;;;5016079;28;20034;-62
2021/11/19 02:29:17;;;;;;;5.40;0.88;;;;;;;;;;5020251;28;20032;-62
2021/11/19 02:31:49;;;;;;;3.28;0.90;;;;;;;;;;5020027;28;20048;-61
2021/11/19 02:34:16;;;;;;;3.63;1.00;;;;;;;;;;5021183;28;20046;-61
2021/11/19 02:37:02;;;;;;;6.45;1.25;;;;;;;;;;5018512;28;20394;-61
2021/11/19 02:39:35;;;;;;;10.80;3.67;;;;;;;;;;5023951;28;21009;-62
2021/11/19 02:42:09;;;;;;;10.27;3.78;;;;;;;;;;5021525;28;20576;-62
2021/11/19 02:44:35;;;;;;;15.95;6.10;;;;;;;;;;5021580;28;20481;-61
2021/11/19 02:47:04;;;;;;;24.35;9.70;;;;;;;;;;5020190;28;20128;-61
2021/11/19 02:49:31;;;;;;;22.30;9.63;;;;;;;;;;5020789;28;20017;-61
2021/11/19 02:51:57;;;;;;;23.08;9.25;;;;;;;;;;5018788;28;20037;-61
2021/11/19 02:54:26;;;;;;;28.60;10.38;;;;;;;;;;5019188;28;20483;-62
2021/11/19 02:56:52;;;;;;;21.00;9.90;;;;;;;;;;5026157;28;20030;-62
2021/11/19 02:59:20;;;;;;;19.08;7.80;;;;;;;;;;5022488;28;20033;-61
2021/11/19 03:01:55;;;;;;;15.32;5.88;;;;;;;;;;5018140;28;20029;-61
2021/11/19 03:04:45;;;;;;;14.40;5.20;;;;;;;;;;5020987;28;20040;-61
2021/11/19 03:07:11;;;;;;;9.38;3.58;;;;;;;;;;5017628;28;20377;-63
2021/11/19 03:09:48;;;;;;;9.05;2.58;;;;;;;;;;5022991;28;20488;-61
2021/11/19 03:12:17;;;;;;;6.45;2.97;;;;;;;;;;5017432;28;20036;-62
2021/11/19 03:14:44;;;;;;;7.30;2.72;;;;;;;;;;5019597;28;20560;-61
2021/11/19 03:17:12;;;;;;;9.70;2.55;;;;;;;;;;5023285;28;20056;-62
2021/11/19 03:19:38;;;;;;;10.05;3.03;;;;;;;;;;5017614;28;20391;-61
2021/11/19 03:22:06;;;;;;;7.50;2.28;;;;;;;;;;5029720;28;20211;-62
2021/11/19 03:24:32;;;;;;;2.92;1.90;;;;;;;;;;5016257;28;20034;-60
2021/11/19 03:26:57;;;;;;;10.43;1.98;;;;;;;;;;5018472;28;20025;-61
2021/11/19 03:29:24;;;;;;;3.75;2.00;;;;;;;;;;5016465;28;20132;-60
2021/11/19 03:31:50;;;;;;;5.18;1.95;;;;;;;;;;5016986;28;20026;-60
2021/11/19 03:34:18;;;;;;;3.83;1.67;;;;;;;;;;5019274;28;20343;-61
2021/11/19 03:36:47;;;;;;;15.38;2.33;;;;;;;;;;5015984;28;20037;-62
2021/11/19 03:39:14;;;;;;;3.80;1.85;;;;;;;;;;5019675;28;20120;-61
2021/11/19 03:41:42;;;;;;;5.93;1.77;;;;;;;;;;5018685;28;20108;-61
2021/11/19 03:44:25;;;;;;;7.40;2.08;;;;;;;;;;5019038;28;20095;-61
2021/11/19 03:47:00;;;;;;;3.92;2.78;;;;;;;;;;5017044;28;20118;-61
2021/11/19 03:49:27;;;;;;;7.28;2.78;;;;;;;;;;5014718;28;20030;-61
2021/11/19 03:52:13;;;;;;;3.53;2.75;;;;;;;;;;5020135;28;20041;-62
2021/11/19 03:54:41;;;;;;;4.72;2.80;;;;;;;;;;5017916;28;20152;-62
2021/11/19 03:57:09;;;;;;;4.18;3.20;;;;;;;;;;5013667;28;20029;-61
2021/11/19 03:59:35;;;;;;;5.88;2.83;;;;;;;;;;5019272;28;20034;-61
2021/11/19 04:02:03;;;;;;;5.63;3.38;;;;;;;;;;5014515;28;20039;-62
2021/11/19 04:04:31;;;;;;;5.93;2.65;;;;;;;;;;5017154;28;20029;-62
2021/11/19 04:06:59;;;;;;;7.10;2.70;;;;;;;;;;5018703;28;20492;-61
2021/11/19 04:09:25;;;;;;;3.47;2.35;;;;;;;;;;5021007;28;20251;-62
2021/11/19 04:11:51;;;;;;;4.05;2.83;;;;;;;;;;5016959;28;20595;-61
2021/11/19 04:14:18;;;;;;;11.75;2.53;;;;;;;;;;5019155;28;20033;-61
2021/11/19 04:16:46;;;;;;;12.10;2.67;;;;;;;;;;5018118;28;20116;-62
2021/11/19 04:19:14;;;;;;;4.30;1.98;;;;;;;;;;5022417;28;20029;-61
2021/11/19 04:21:40;;;;;;;2.20;1.80;;;;;;;;;;5019369;28;20104;-60
2021/11/19 04:24:09;;;;;;;9.45;2.08;;;;;;;;;;5015253;28;20184;-62
2021/11/19 04:26:35;;;;;;;2.17;1.77;;;;;;;;;;5023961;28;20120;-61
2021/11/19 04:29:02;;;;;;;4.10;1.80;;;;;;;;;;5018139;28;20038;-62
2021/11/19 04:31:29;;;;;;;2.42;1.60;;;;;;;;;;5016730;28;20026;-62
2021/11/19 04:33:56;;;;;;;1.55;1.30;;;;;;;;;;5016475;28;20560;-61
2021/11/19 04:36:22;;;;;;;2.95;1.48;;;;;;;;;;5022481;28;20045;-61
2021/11/19 04:38:48;;;;;;;4.63;1.63;;;;;;;;;;5016598;28;20037;-62
2021/11/19 04:41:16;;;;;;;2.75;1.00;;;;;;;;;;5013660;28;20108;-61
2021/11/19 04:43:41;;;;;;;2.10;1.23;;;;;;;;;;5016889;28;20037;-62
2021/11/19 04:46:09;;;;;;;1.27;1.00;;;;;;;;;;5017475;28;20049;-61
2021/11/19 04:48:36;;;;;;;1.45;0.80;;;;;;;;;;5016583;28;20492;-61
2021/11/19 04:51:05;;;;;;;1.77;0.93;;;;;;;;;;5015887;28;20051;-62
2021/11/19 04:53:31;;;;;;;2.85;1.10;;;;;;;;;;5018540;28;20120;-62
2021/11/19 04:55:57;;;;;;;4.97;1.60;;;;;;;;;;5021269;28;20104;-62
2021/11/19 04:58:23;;;;;;;4.95;1.60;;;;;;;;;;5022964;28;20072;-62
2021/11/19 05:00:59;;;;;;;6.18;1.58;;;;;;;;;;5016014;28;20030;-61
2021/11/19 05:03:25;;;;;;;4.47;0.90;;;;;;;;;;5018783;28;20657;-61
2021/11/19 05:05:51;;;;;;;2.05;1.35;;;;;;;;;;5016440;28;20030;-61
2021/11/19 05:08:17;;;;;;;1.33;1.10;;;;;;;;;;5018773;28;20033;-61
2021/11/19 05:10:46;;;;;;;1.75;1.02;;;;;;;;;;5019082;28;20053;-61
2021/11/19 05:13:12;;;;;;;2.75;1.10;;;;;;;;;;5021525;28;20032;-61
2021/11/19 05:15:40;;;;;;;1.30;0.95;;;;;;;;;;5018932;28;20109;-61
2021/11/19 05:18:06;;;;;;;2.17;1.20;;;;;;;;;;5019050;28;20032;-61
2021/11/19 05:20:32;;;;;;;1.80;1.20;;;;;;;;;;5018195;28;20041;-61
2021/11/19 05:22:58;;;;;;;5.15;1.05;;;;;;;;;;5019116;28;20036;-61
2021/11/19 05:25:27;;;;;;;1.83;1.25;;;;;;;;;;5016660;28;20026;-61
2021/11/19 05:27:53;;;;;;;4.13;1.15;;;;;;;;;;5014228;28;20408;-61
2021/11/19 05:30:20;;;;;;;1.52;1.08;;;;;;;;;;5016601;28;20041;-61
2021/11/19 05:32:46;;;;;;;2.88;1.40;;;;;;;;;;5015711;28;20503;-60
2021/11/19 05:35:13;;;;;;;5.13;1.20;;;;;;;;;;5019720;28;20037;-60
2021/11/19 05:37:39;;;;;;;3.90;1.30;;;;;;;;;;5015263;28;20028;-61
2021/11/19 05:40:07;;;;;;;1.98;1.40;;;;;;;;;;5015831;28;20041;-59
2021/11/19 05:42:32;;;;;;;5.63;1.60;;;;;;;;;;5015487;28;20028;-60
2021/11/19 05:44:58;;;;;;;1.70;1.17;;;;;;;;;;5019116;28;20057;-60
2021/11/19 05:47:23;;;;;;;1.85;1.30;;;;;;;;;;5019111;28;20041;-61
2021/11/19 05:49:49;;;;;;;1.35;1.20;;;;;;;;;;5019795;28;20042;-61
2021/11/19 05:52:18;;;;;;;4.18;1.80;;;;;;;;;;5016685;28;20416;-60
2021/11/19 05:54:44;;;;;;;2.55;1.10;;;;;;;;;;5014284;28;20030;-61
2021/11/19 05:57:13;;;;;;;2.35;1.13;;;;;;;;;;5020152;28;20036;-60
2021/11/19 05:59:39;;;;;;;1.77;1.48;;;;;;;;;;5017371;28;20392;-60
2021/11/19 06:02:08;;;;;;;1.67;0.85;;;;;;;;;;5016079;28;20089;-61
2021/11/19 06:04:33;;;;;;;1.38;1.00;;;;;;;;;;5019754;28;20366;-61
2021/11/19 06:06:59;;;;;;;4.97;1.10;;;;;;;;;;5017187;28;20041;-61
2021/11/19 06:09:29;;;;;;;1.65;1.10;;;;;;;;;;5016898;28;20026;-61
2021/11/19 06:12:02;;;;;;;1.13;1.00;;;;;;;;;;5013745;28;20496;-61
2021/11/19 06:14:30;;;;;;;;;;;;;;;;;;5013694;28;20041;-61
2021/11/19 06:17:00;;;;;;;2.03;1.10;;;;;;;;;;5019365;28;20289;-61
2021/11/19 06:19:29;;;;;;;2.38;1.35;;;;;;;;;;5012734;28;20029;-61
2021/11/19 06:22:00;;;;;;;1.33;0.88;;;;;;;;;;5015107;28;20025;-62
2021/11/19 06:24:32;;;;;;;2.72;1.08;;;;;;;;;;5017414;28;20025;-62
2021/11/19 06:26:58;;;;;;;;;;;;;;;;;;5014755;28;20538;-62
2021/11/19 06:29:24;;;;;;;3.17;0.93;;;;;;;;;;5014746;28;20145;-62
2021/11/19 06:31:54;;;;;;;1.33;0.90;;;;;;;;;;5013809;28;20049;-60
2021/11/19 06:34:21;;;;;;;2.47;0.88;;;;;;;;;;5013052;28;22410;-61
2021/11/19 06:36:47;;;;;;;7.20;1.10;;;;;;;;;;5017778;28;20109;-61
2021/11/19 06:39:15;;;;;;;1.10;0.75;;;;;;;;;;5015943;28;20116;-61
2021/11/19 06:41:41;;;;;;;1.45;0.90;;;;;;;;;;5021584;28;20033;-61
2021/11/19 06:44:08;;;;;;;1.40;0.75;;;;;;;;;;5019748;28;20037;-62
2021/11/19 06:46:33;;;;;;;2.05;0.70;;;;;;;;;;5018755;28;20048;-62
2021/11/19 06:48:59;;;;;;;1.60;0.98;;;;;;;;;;5019907;28;20030;-61
2021/11/19 06:51:25;;;;;;;3.40;1.08;;;;;;;;;;5020709;28;20032;-61
2021/11/19 06:53:51;;;;;;;1.67;0.80;;;;;;;;;;5018585;28;20034;-60
2021/11/19 06:56:18;;;;;;;1.25;1.00;;;;;;;;;;5021509;28;20041;-61
2021/11/19 06:58:44;;;;;;;3.33;0.90;;;;;;;;;;5020923;28;20017;-61
2021/11/19 07:01:10;;;;;;;8.35;1.52;;;;;;;;;;5017759;28;20156;-61
2021/11/19 07:03:36;;;;;;;4.50;1.38;;;;;;;;;;5022141;28;20112;-61
2021/11/19 07:06:02;;;;;;;6.75;1.10;;;;;;;;;;5019078;28;20486;-60
2021/11/19 07:08:29;;;;;;;2.63;1.17;;;;;;;;;;5017214;28;20061;-61
2021/11/19 07:11:04;;;;;;;1.73;1.00;;;;;;;;;;5016237;28;20029;-61
2021/11/19 07:13:30;;;;;;;1.80;1.25;;;;;;;;;;5017858;28;20511;-62
2021/11/19 07:15:56;;;;;;;6.55;1.20;;;;;;;;;;5011919;28;20028;-61
2021/11/19 07:18:22;;;;;;;2.67;1.15;;;;;;;;;;5020471;28;20140;-61
2021/11/19 07:20:49;;;;;;;4.07;1.80;;;;;;;;;;5018008;28;20480;-61
2021/11/19 07:23:15;;;;;;;4.43;1.58;;;;;;;;;;5022750;28;20033;-61
2021/11/19 07:25:41;;;;;;;2.05;1.35;;;;;;;;;;5019121;28;20034;-61
2021/11/19 07:28:10;;;;;;;2.15;1.25;;;;;;;;;;5016686;28;20444;-60
2021/11/19 07:30:45;;;;;;;5.35;1.67;;;;;;;;;;5024330;28;20688;-61
2021/11/19 07:33:11;;;;;;;3.25;1.55;;;;;;;;;;5015012;28;20026;-61
2021/11/19 07:35:38;;;;;;;2.50;1.52;;;;;;;;;;5013317;28;20091;-61
2021/11/19 07:38:05;;;;;;;4.65;1.30;;;;;;;;;;5019622;28;20037;-61
2021/11/19 07:40:34;;;;;;;1.85;1.00;;;;;;;;;;5022882;28;20025;-60
2021/11/19 07:43:00;;;;;;;2.10;1.23;;;;;;;;;;5017403;28;20474;-60
2021/11/19 07:45:28;;;;;;;3.17;1.35;;;;;;;;;;5024432;28;20140;-60
2021/11/19 07:47:54;;;;;;;3.50;1.40;;;;;;;;;;5020153;28;20041;-61
2021/11/19 07:50:23;;;;;;;2.78;1.30;;;;;;;;;;5016888;28;20033;-61
2021/11/19 07:52:49;;;;;;;6.28;1.30;;;;;;;;;;5021873;28;20025;-58
2021/11/19 07:55:15;;;;;;;3.92;1.55;;;;;;;;;;5016784;28;20053;-59
2021/11/19 07:57:40;;;;;;;2.58;1.20;;;;;;;;;;5009864;28;20053;-59
2021/11/19 08:00:14;;;;;;;2.25;0.95;;;;;;;;;;5016698;28;20032;-59
2021/11/19 08:02:40;;;;;;;1.73;0.80;;;;;;;;;;5017955;28;20484;-59
2021/11/19 08:05:06;;;;;;;3.05;1.05;;;;;;;;;;5020914;28;20022;-59
2021/11/19 08:07:33;;;;;;;5.90;1.10;;;;;;;;;;5018530;28;20033;-59
2021/11/19 08:09:59;;;;;;;5.63;1.15;;;;;;;;;;5018065;28;20100;-59
2021/11/19 08:12:25;;;;;;;2.35;0.63;;;;;;;;;;5018728;28;20488;-59
2021/11/19 08:14:51;;;;;;;1.67;0.85;;;;;;;;;;5017856;28;20033;-59
2021/11/19 08:17:42;;;;;;;2.22;0.88;;;;;;;;;;5021773;28;20033;-59
2021/11/19 08:20:11;;;;;;;1.73;0.82;;;;;;;;;;5015195;28;20380;-59
2021/11/19 08:22:36;;;;;;;3.65;0.93;;;;;;;;;;5024170;28;20029;-59
2021/11/19 08:25:05;;;;;;;2.22;1.10;;;;;;;;;;5017935;28;20036;-59
2021/11/19 08:27:41;;;;;;;3.90;0.93;;;;;;;;;;5017683;28;20038;-59
2021/11/19 08:30:12;;;;;;;1.50;0.98;;;;;;;;;;5015925;28;20026;-59
2021/11/19 08:32:38;;;;;;;1.77;0.88;;;;;;;;;;5017185;28;20076;-58
2021/11/19 08:35:04;;;;;;;3.05;1.00;;;;;;;;;;5017266;28;20041;-59
2021/11/19 08:37:31;;;;;;;1.42;0.73;;;;;;;;;;5020853;28;20025;-58
2021/11/19 08:39:57;;;;;;;0.70;0.63;;;;;;;;;;5018316;28;20044;-61
2021/11/19 08:42:24;;;;;;;6.70;1.27;;;;;;;;;;5021001;28;20029;-60
2021/11/19 08:44:50;;;;;;;3.40;0.80;;;;;;;;;;5017810;28;20053;-59
2021/11/19 08:47:17;;;;;;;3.13;1.02;;;;;;;;;;5022077;28;20470;-59
2021/11/19 08:49:44;;;;;;;2.05;0.52;;;;;;;;;;5017582;28;20045;-60
2021/11/19 08:52:13;;;;;;;3.10;0.95;;;;;;;;;;5018842;28;20029;-58
2021/11/19 08:54:39;;;;;;;4.30;1.00;;;;;;;;;;5020742;28;20057;-60
2021/11/19 08:57:14;;;;;;;1.35;1.02;;;;;;;;;;5015133;28;20042;-60
2021/11/19 08:59:42;;;;;;;1.80;0.85;;;;;;;;;;5017021;28;20100;-61
2021/11/19 09:02:13;;;;;;;3.58;0.80;;;;;;;;;;5018481;28;20500;-59
2021/11/19 09:04:38;;;;;;;1.40;0.90;;;;;;;;;;5012888;28;20029;-60
2021/11/19 09:07:05;;;;;;;8.20;0.85;;;;;;;;;;5019617;28;20095;-61
2021/11/19 09:09:31;;;;;;;2.15;0.85;;;;;;;;;;5019687;28;20068;-60
2021/11/19 09:11:57;;;;;;;1.65;0.70;;;;;;;;;;5023248;28;20025;-59
2021/11/19 09:14:24;;;;;;;2.85;0.47;;;;;;;;;;5022020;28;20107;-60
2021/11/19 09:17:02;;;;;;;0.30;0.30;;;;;;;;;;5016363;28;20029;-60
2021/11/19 09:19:38;;;;;;;1.02;0.70;;;;;;;;;;5018909;28;20496;-60
2021/11/19 09:22:16;;;;;;;1.55;0.70;;;;;;;;;;5019611;28;20022;-60
2021/11/19 09:24:41;;;;;;;2.63;0.30;;;;;;;;;;5013304;28;20037;-60
2021/11/19 09:27:11;;;;;;;1.17;0.30;;;;;;;;;;5014640;28;20512;-60
2021/11/19 09:29:36;;;;;;;1.55;0.32;;;;;;;;;;5015622;28;20052;-60
2021/11/19 09:32:04;;;;;;;1.08;0.20;;;;;;;;;;5012696;28;20394;-59
2021/11/19 09:34:31;;;;;;;0.20;0.20;;;;;;;;;;5015313;28;20029;-59
2021/11/19 09:36:58;;;;;;;3.70;0.30;;;;;;;;;;5013077;28;20034;-59
2021/11/19 09:39:27;;;;;;;0.20;0.20;;;;;;;;;;5009707;28;20026;-59
2021/11/19 09:42:20;;;;;;;1.25;0.32;;;;;;;;;;5011734;28;20029;-59
2021/11/19 09:45:14;;;;;;;0.95;0.30;;;;;;;;;;5010520;28;20088;-59
2021/11/19 09:48:17;;;;;;;0.82;0.20;;;;;;;;;;5015084;28;20045;-59
2021/11/19 09:51:09;;;;;;;1.45;0.40;;;;;;;;;;5013706;28;20025;-58
2021/11/19 09:53:56;;;;;;;0.20;0.10;;;;;;;;;;5011267;28;20117;-59
2021/11/19 09:56:59;;;;;;;0.98;0.50;;;;;;;;;;5012819;28;20022;-59
2021/11/19 09:59:43;;;;;;;2.67;0.20;;;;;;;;;;5021426;28;20022;-59
2021/11/19 10:02:46;;;;;;;0.85;0.40;;;;;;;;;;5014952;28;20025;-59
2021/11/19 10:05:29;;;;;;;0.68;0.43;;;;;;;;;;5012518;28;20393;-58
2021/11/19 10:08:04;;;;;;;0.30;0.30;;;;;;;;;;5011314;28;20034;-59
2021/11/19 10:10:47;;;;;;;1.52;0.60;;;;;;;;;;5013946;28;20033;-59
2021/11/19 10:13:22;;;;;;;3.90;0.70;;;;;;;;;;5017357;28;20420;-60
2021/11/19 10:16:03;;;;;;;1.95;0.80;;;;;;;;;;5016804;28;20371;-59
2021/11/19 10:18:31;;;;;;;0.95;0.60;;;;;;;;;;5026531;28;20123;-59
2021/11/19 10:21:13;;;;;;;4.72;0.60;;;;;;;;;;5024833;28;20030;-59
2021/11/19 10:24:10;;;;;;;3.30;0.50;;;;;;;;;;5020262;28;20037;-58
2021/11/19 10:26:37;;;;;;;0.82;0.52;;;;;;;;;;5023556;28;20035;-59
2021/11/19 10:29:02;;;;;;;5.55;0.68;;;;;;;;;;5019756;28;20021;-59
2021/11/19 10:31:28;;;;;;;9.75;0.80;;;;;;;;;;5016356;28;20056;-59
2021/11/19 10:34:21;;;;;;;3.38;1.10;;;;;;;;;;5016739;28;20080;-59
2021/11/19 10:37:08;;;;;;;1.17;0.60;;;;;;;;;;5017052;28;20757;-58
2021/11/19 10:39:59;;;;;;;1.20;0.52;;;;;;;;;;5026612;28;20017;-59
2021/11/19 10:42:39;;;;;;;1.38;0.50;;;;;;;;;;5019375;28;20482;-58
2021/11/19 10:45:20;;;;;;;1.35;0.75;;;;;;;;;;5019301;28;20151;-59
2021/11/19 10:48:09;;;;;;;1.50;0.77;;;;;;;;;;5021995;28;20041;-59
2021/11/19 10:51:02;;;;;;;2.10;0.45;;;;;;;;;;5023420;28;20041;-59
2021/11/19 10:53:37;;;;;;;1.90;0.60;;;;;;;;;;5018496;28;20018;-59
2021/11/19 10:56:27;;;;;;;1.55;0.30;;;;;;;;;;5015837;28;20034;-59
2021/11/19 10:59:16;;;;;;;0.63;0.20;;;;;;;;;;5019902;28;20120;-59
2021/11/19 11:02:07;;;;;;;4.22;0.38;;;;;;;;;;5016141;28;20492;-59
2021/11/19 11:04:56;;;;;;;0.75;0.30;;;;;;;;;;5014344;28;20071;-59
2021/11/19 11:07:32;;;;;;;1.02;0.45;;;;;;;;;;5021442;28;20028;-59
2021/11/19 11:09:57;;;;;;;0.75;0.22;;;;;;;;;;5019744;28;20017;-59
2021/11/19 11:12:45;;;;;;;1.65;0.60;;;;;;;;;;5018252;28;20079;-59
2021/11/19 11:15:34;;;;;;;2.60;1.00;;;;;;;;;;5022288;28;20083;-59
2021/11/19 11:18:12;;;;;;;1.63;0.50;;;;;;;;;;5019587;28;20032;-60
2021/11/19 11:20:59;;;;;;;0.82;0.40;;;;;;;;;;5023478;28;20617;-60
2021/11/19 11:23:34;;;;;;;1.45;0.75;;;;;;;;;;5022395;28;20060;-60
2021/11/19 11:26:23;;;;;;;0.20;0.20;;;;;;;;;;5023045;28;20020;-60
2021/11/19 11:28:54;;;;;;;2.65;0.43;;;;;;;;;;5020731;28;20083;-59
2021/11/19 11:31:46;;;;;;;1.17;0.30;;;;;;;;;;5024157;28;20052;-60
2021/11/19 11:34:44;;;;;;;0.53;0.40;;;;;;;;;;5020238;28;20034;-59
2021/11/19 11:37:13;;;;;;;2.05;0.50;;;;;;;;;;5020440;28;20021;-59
2021/11/19 11:39:44;;;;;;;1.15;0.80;;;;;;;;;;5016517;28;20045;-60
2021/11/19 11:42:13;;;;;;;0.70;0.70;;;;;;;;;;5017691;28;20128;-59
2021/11/19 11:44:48;;;;;;;1.67;0.70;;;;;;;;;;5018327;28;20493;-59
2021/11/19 11:47:28;;;;;;;0.60;0.50;;;;;;;;;;5017277;28;20084;-59
2021/11/19 11:49:57;;;;;;;2.13;0.65;;;;;;;;;;5013842;28;20396;-59
2021/11/19 11:52:25;;;;;;;0.98;0.50;;;;;;;;;;5013304;28;20061;-59
2021/11/19 11:55:12;;;;;;;1.33;0.50;;;;;;;;;;5022428;28;20021;-59
2021/11/19 11:57:54;;;;;;;1.15;0.55;;;;;;;;;;5018684;28;20303;-59
2021/11/19 12:00:54;;;;;;;2.00;0.75;;;;;;;;;;5017855;28;20038;-58
2021/11/19 12:03:37;;;;;;;2.42;0.43;;;;;;;;;;5025869;28;20404;-59
2021/11/19 12:06:28;;;;;;;0.50;0.40;;;;;;;;;;5019306;28;20022;-58
2021/11/19 12:09:06;;;;;;;2.72;0.28;;;;;;;;;;5017982;28;20014;-59
2021/11/19 12:11:52;;;;;;;1.52;0.40;;;;;;;;;;5017389;28;20079;-59
2021/11/19 12:14:26;;;;;;;1.65;0.75;;;;;;;;;;5020242;28;20121;-59
2021/11/19 12:17:21;;;;;;;3.00;0.40;;;;;;;;;;5019406;28;20115;-59
2021/11/19 12:20:03;;;;;;;1.52;0.40;;;;;;;;;;5021058;28;20025;-59
2021/11/19 12:22:41;;;;;;;0.60;0.38;;;;;;;;;;5011999;28;20526;-59
2021/11/19 12:25:39;;;;;;;1.35;0.50;;;;;;;;;;5019234;28;20026;-59
2021/11/19 12:28:21;;;;;;;0.35;0.30;;;;;;;;;;5020006;28;20040;-59
2021/11/19 12:31:21;;;;;;;1.00;0.38;;;;;;;;;;5018081;28;20026;-58
2021/11/19 12:33:50;;;;;;;1.27;0.30;;;;;;;;;;5019241;28;20388;-59
2021/11/19 12:36:28;;;;;;;0.57;0.50;;;;;;;;;;5014089;28;20071;-59
2021/11/19 12:39:00;;;;;;;1.38;0.30;;;;;;;;;;5040441;28;20018;-58
2021/11/19 12:41:34;;;;;;;0.73;0.40;;;;;;;;;;5017110;28;20520;-59
2021/11/19 12:44:24;;;;;;;0.45;0.22;;;;;;;;;;5016843;28;20034;-58
2021/11/19 12:47:23;;;;;;;0.40;0.40;;;;;;;;;;5014785;28;20034;-57
2021/11/19 12:50:07;;;;;;;0.95;0.52;;;;;;;;;;5017888;28;20048;-60
2021/11/19 12:52:41;;;;;;;0.68;0.40;;;;;;;;;;5015235;28;20041;-57
2021/11/19 12:55:27;;;;;;;0.45;0.30;;;;;;;;;;5016724;28;20566;-58
2021/11/19 12:58:26;;;;;;;0.63;0.40;;;;;;;;;;5021430;28;20030;-58
2021/11/19 13:01:16;;;;;;;0.75;0.40;;;;;;;;;;5015225;28;20043;-59
2021/11/19 13:03:51;;;;;;;0.28;0.20;;;;;;;;;;5017406;28;20032;-58
2021/11/19 13:06:34;;;;;;;3.65;1.38;;;;;;;;;;5022251;28;20098;-58
2021/11/19 13:09:32;;;;;;;0.45;0.30;;;;;;;;;;5022128;28;20523;-58
2021/11/19 13:12:02;;;;;;;2.25;0.35;;;;;;;;;;5007882;28;20045;-58
2021/11/19 13:14:31;;;;;;;2.50;1.05;;;;;;;;;;5014872;28;20065;-58
2021/11/19 13:17:16;;;;;;;0.60;0.40;;;;;;;;;;5014177;28;20531;-58
2021/11/19 13:19:42;;;;;;;0.90;0.40;;;;;;;;;;5016602;28;20052;-58
2021/11/19 13:22:10;;;;;;;3.50;0.30;;;;;;;;;;5017097;28;20126;-58
2021/11/19 13:24:41;;;;;;;0.65;0.25;;;;;;;;;;5020826;28;20077;-58
2021/11/19 13:27:13;;;;;;;2.10;0.20;;;;;;;;;;5020826;28;20080;-58
2021/11/19 13:29:47;;;;;;;1.35;0.30;;;;;;;;;;5015839;28;20412;-58
2021/11/19 13:32:19;;;;;;;1.92;0.30;;;;;;;;;;5015774;28;20040;-57
2021/11/19 13:34:47;;;;;;;0.95;0.35;;;;;;;;;;5014852;28;20792;-57
2021/11/19 13:37:21;;;;;;;3.55;0.30;;;;;;;;;;5012282;28;20120;-57
2021/11/19 13:39:48;;;;;;;2.20;0.40;;;;;;;;;;5015407;28;20057;-58
2021/11/19 13:42:13;;;;;;;1.85;0.60;;;;;;;;;;5013860;28;20041;-57
2021/11/19 13:45:09;;;;;;;1.02;0.43;;;;;;;;;;5018774;28;20025;-58
2021/11/19 13:47:47;;;;;;;0.65;0.32;;;;;;;;;;5019927;28;20758;-58
2021/11/19 13:50:24;;;;;;;1.98;0.52;;;;;;;;;;5022336;28;20117;-58
2021/11/19 13:52:58;;;;;;;0.30;0.30;;;;;;;;;;5019720;28;20489;-59
2021/11/19 13:55:30;;;;;;;1.13;0.40;;;;;;;;;;5016580;28;20539;-58
2021/11/19 13:58:04;;;;;;;2.92;0.50;;;;;;;;;;5030219;28;20026;-58
2021/11/19 14:00:41;;;;;;;0.85;0.47;;;;;;;;;;5025316;28;20244;-58
2021/11/19 14:03:18;;;;;;;1.08;0.68;;;;;;;;;;5022546;28;20084;-58
2021/11/19 14:05:48;;;;;;;0.93;0.50;;;;;;;;;;5026995;28;20492;-58
2021/11/19 14:08:20;;;;;;;0.95;0.73;;;;;;;;;;5028563;28;20504;-58
2021/11/19 14:10:53;;;;;;;1.20;0.75;;;;;;;;;;5020674;28;20361;-59
2021/11/19 14:13:33;;;;;;;1.42;0.60;;;;;;;;;;5023362;28;20033;-59
2021/11/19 14:15:59;;;;;;;2.85;0.77;;;;;;;;;;5021829;28;20144;-59
2021/11/19 14:24:14;;;;;;;5.15;1.10;;;;;;;;;;5018426;28;20535;-59
2021/11/19 14:26:52;;;;;;;3.05;0.60;;;;;;;;;;5017017;28;20030;-58
2021/11/19 14:29:25;;;;;;;1.75;0.70;;;;;;;;;;5016925;28;20022;-59
2021/11/19 14:31:55;;;;;;;2.55;0.95;;;;;;;;;;5026063;28;20084;-59
2021/11/19 14:34:45;;;;;;;1.70;0.52;;;;;;;;;;5018579;28;20040;-58
2021/11/19 14:37:33;;;;;;;4.80;0.73;;;;;;;;;;5021644;28;20072;-59
2021/11/19 14:40:07;;;;;;;2.35;0.90;;;;;;;;;;5027805;28;20026;-59
2021/11/19 14:42:39;;;;;;;1.90;1.23;;;;;;;;;;5022191;28;20033;-59
2021/11/19 14:45:33;;;;;;;1.40;1.00;;;;;;;;;;5021171;28;20536;-59
2021/11/19 14:48:19;;;;;;;6.25;1.77;;;;;;;;;;5018421;28;20056;-59
2021/11/19 14:51:23;;;;;;;2.20;1.30;;;;;;;;;;5006424;28;20045;-59
2021/11/19 14:53:57;;;;;;;6.28;1.42;;;;;;;;;;5025923;28;20029;-57
2021/11/19 14:56:28;;;;;;;3.53;1.30;;;;;;;;;;5027247;28;20162;-59
2021/11/19 14:59:09;;;;;;;3.88;2.20;;;;;;;;;;5024625;28;20034;-59
2021/11/19 15:01:50;;;;;;;3.50;1.53;;;;;;;;;;5017264;28;20083;-59
2021/11/19 15:04:19;;;;;;;7.20;2.67;;;;;;;;;;5020204;28;20274;-59
2021/11/19 15:06:46;;;;;;;4.35;2.35;;;;;;;;;;5015927;28;20060;-59
2021/11/19 15:09:24;;;;;;;6.55;2.60;;;;;;;;;;5022508;28;20613;-59
2021/11/19 15:11:53;;;;;;;8.15;2.95;;;;;;;;;;5025427;28;20119;-59
2021/11/19 15:14:20;;;;;;;10.82;2.20;;;;;;;;;;5019655;28;20115;-59
2021/11/19 15:17:00;;;;;;;8.73;2.90;;;;;;;;;;5017444;28;20076;-59
2021/11/19 15:19:45;;;;;;;4.93;2.60;;;;;;;;;;5020044;28;20033;-59
2021/11/19 15:22:33;;;;;;;1.88;0.95;;;;;;;;;;5017884;28;20036;-59